This is the latest recevied weather packets stored in our database for station/object DB0DUS-10. If no packets are shown the sender has not sent any weather packets the latest 10 day(s).
| Time | Temp. | Humidity | Pressure | Rain* | Wind** | Luminosity | Snow |
|---|---|---|---|---|---|---|---|
| 1777925584 | 15° C | 88% | 1013.2 hPa | 0 mm | - | - | - |
| 1777925283 | 15° C | 88% | 1013.2 hPa | 0 mm | - | - | - |
| 1777924084 | 15.56° C | 88% | 1013.1 hPa | 0 mm | - | - | - |
| 1777923483 | 15.56° C | 87% | 1013.1 hPa | 0 mm | - | - | - |
| 1777922584 | 15.56° C | 87% | 1013 hPa | 0 mm | - | - | - |
| 1777921683 | 15.56° C | 86% | 1012.8 hPa | 0 mm | - | - | - |
| 1777921084 | 15.56° C | 86% | 1012.9 hPa | 0 mm | - | - | - |
| 1777919883 | 15.56° C | 87% | 1012.7 hPa | 0 mm | - | - | - |
| 1777919585 | 15.56° C | 87% | 1012.8 hPa | 0 mm | - | - | - |
| 1777918083 | 15.56° C | 88% | 1012.7 hPa | 0 mm | - | - | - |
| 1777916584 | 15.56° C | 88% | 1012.7 hPa | 0.25 mm | - | - | - |
| 1777916283 | 16.11° C | 89% | 1012.8 hPa | 0.51 mm | - | - | - |
| 1777915084 | 16.11° C | 89% | 1013 hPa | 0.76 mm | - | - | - |
| 1777914483 | 16.11° C | 88% | 1013.1 hPa | 1.02 mm | - | - | - |
| 1777913584 | 16.67° C | 88% | 1013.3 hPa | 1.02 mm | - | - | - |
| 1777912683 | 16.67° C | 86% | 1013.4 hPa | 1.27 mm | - | - | - |
| 1777912084 | 16.67° C | 85% | 1013.4 hPa | 1.27 mm | - | - | - |
| 1777910883 | 16.67° C | 84% | 1013.4 hPa | 1.02 mm | - | - | - |
| 1777910584 | 16.67° C | 83% | 1013.3 hPa | 1.27 mm | - | - | - |
| 1777909083 | 17.22° C | 80% | 1013.5 hPa | 2.29 mm | - | - | - |
| 1777907584 | 17.22° C | 77% | 1013.3 hPa | 2.54 mm | - | - | - |
| 1777907283 | 17.22° C | 78% | 1013.4 hPa | 2.54 mm | - | - | - |
| 1777906084 | 18.33° C | 72% | 1013.4 hPa | 2.03 mm | - | - | - |
| 1777905483 | 19.44° C | 67% | 1013.4 hPa | 0.51 mm | - | - | - |
| 1777904585 | 20° C | 62% | 1013.3 hPa | 0 mm | - | - | - |
* Rain latest hour (hover to see other rain measurements)
** Current wind speed in m/s (hover to see current wind gust speed)